Data for 06/19/2014

Time Sea-Level Adjusted Pressure Absolute Pressure Temperature Relative Humidity Dew Point   
(mb) (inHg) (mb) (inHg) (C) (F) (%) (C) (F)
00:05 1017 30.03 846 24.98 7.4 45.4 81 4.5 40
00:10 1016 30 846 24.98 7.6 45.7 78 4 39.3
00:15 1016 30 846 24.98 7.8 46.1 77 4 39.2
00:20 1016 30 846 24.98 8 46.3 74 3.7 38.7
00:25 1016 30 846 24.98 8.1 46.6 75 3.9 39
00:30 1016 30 845 24.95 8.2 46.8 74 3.9 39.1
00:35 1016 30 845 24.95 8.2 46.8 74 3.9 39
00:40 1016 30 845 24.95 8.3 46.9 77 4.6 40.2
00:45 1016 30 845 24.95 8 46.5 85 5.7 42.3
00:50 1016 30 845 24.95 7.5 45.5 85 5.2 41.3
00:55 1016 30 845 24.95 7.5 45.6 84 4.9 40.9
01:00 1016 30 845 24.95 7.6 45.7 83 5 41
01:05 1016 30 845 24.95 7.7 45.8 80 4.5 40.1
01:10 1016 30 845 24.95 7.8 46.1 81 4.7 40.5
01:15 1016 30 845 24.95 7.8 46.1 81 4.7 40.5
01:20 1016 30 845 24.95 7.9 46.3 80 4.7 40.4
01:25 1016 30 845 24.95 8.1 46.5 78 4.5 40.1
01:30 1016 30 845 24.95 8.1 46.5 78 4.4 40
01:35 1016 30 845 24.95 8.2 46.7 73 3.7 38.6
01:40 1016 30 845 24.95 8.6 47.4 69 3.2 37.7
01:45 1016 30 845 24.95 9 48.1 67 3.3 37.9
01:50 1016 30 845 24.95 9 48.3 69 3.7 38.6
01:55 1016 30 845 24.95 8.9 48.1 69 3.6 38.4
02:00 1016 30 845 24.95 9 48.2 67 3.2 37.7
02:05 1016 30 845 24.95 9.2 48.5 67 3.4 38.2
02:10 1016 30 845 24.95 9.2 48.5 66 3.1 37.6
02:15 1016 30 845 24.95 9.4 48.8 66 3.3 37.9
02:20 1016 30 845 24.95 9.4 48.8 66 3.4 38.1
02:25 1016 30 845 24.95 9.4 48.9 65 3.2 37.7
02:30 1016 30 845 24.95 9.5 49 65 3.2 37.8
02:35 1016 30 845 24.95 9.4 48.9 66 3.3 38
02:40 1016 30 845 24.95 9.4 48.9 65 3.2 37.7
02:45 1016 30 845 24.95 9.5 49.1 64 3.1 37.6
02:50 1016 30 845 24.95 9.6 49.2 65 3.3 37.9
02:55 1016 30 845 24.95 9.5 49.1 64 3 37.5
03:00 1016 30 845 24.95 9.6 49.3 63 2.8 37.1
03:05 1016 30 846 24.98 9.7 49.4 63 2.9 37.2
03:10 1016 30 846 24.98 9.7 49.5 61 2.7 36.8
03:15 1016 30 846 24.98 9.9 49.7 61 2.8 37.1
03:20 1016 30 846 24.98 9.8 49.7 62 3 37.4
03:25 1016 30 845 24.95 9.9 49.8 62 3 37.3
03:30 1016 30 846 24.98 9.9 49.9 62 3.1 37.6
03:35 1016 30 846 24.98 9.9 49.7 64 3.5 38.3
03:40 1016 30 846 24.98 9.7 49.5 67 3.9 39.1
03:45 1016 30 846 24.98 9.5 49 69 4 39.3
03:50 1016 30 846 24.98 9.3 48.8 71 4.3 39.7
03:55 1016 30 846 24.98 9.2 48.6 70 4 39.1
04:00 1016 30 846 24.98 9.2 48.5 69 3.8 38.8
04:05 1016 30 846 24.98 9.3 48.7 70 4.1 39.5
04:10 1017 30.03 846 24.98 9.2 48.6 70 4 39.2
04:15 1017 30.03 846 24.98 9.3 48.8 67 3.5 38.3
04:20 1017 30.03 846 24.98 9.6 49.2 67 3.7 38.7
04:25 1017 30.03 846 24.98 9.6 49.4 66 3.6 38.6
04:30 1017 30.03 846 24.98 9.6 49.3 66 3.6 38.5
04:35 1017 30.03 846 24.98 9.7 49.4 65 3.5 38.2
04:40 1017 30.03 846 24.98 9.7 49.4 66 3.6 38.5
04:45 1017 30.03 846 24.98 9.6 49.3 67 3.8 38.8
04:50 1017 30.03 846 24.98 9.6 49.2 67 3.8 38.9
04:55 1017 30.03 846 24.98 9.6 49.3 69 4.3 39.7
05:00 1017 30.03 846 24.98 9.5 49.1 70 4.4 39.9
05:05 1017 30.03 846 24.98 9.5 49 71 4.5 40.2
05:10 1017 30.03 846 24.98 9.3 48.7 71 4.4 39.9
05:15 1017 30.03 846 24.98 9.2 48.6 69 3.9 39.1
05:20 1017 30.03 846 24.98 9.3 48.7 71 4.4 39.9
05:25 1017 30.03 846 24.98 9.2 48.5 73 4.6 40.4
05:30 1017 30.03 846 24.98 9.2 48.6 71 4.3 39.8
05:35 1017 30.03 847 25.01 9.3 48.8 71 4.3 39.8
05:40 1017 30.03 847 25.01 9.5 49 71 4.4 39.9
05:45 1017 30.03 847 25.01 9.6 49.2 69 4.3 39.7
05:50 1017 30.03 847 25.01 9.7 49.4 68 4.1 39.4
05:55 1018 30.06 847 25.01 9.8 49.6 66 3.8 38.9
06:00 1018 30.06 847 25.01 10 49.9 64 3.5 38.4
06:05 1018 30.06 847 25.01 10.3 50.5 61 3.1 37.6
06:10 1018 30.06 847 25.01 10.6 51 59 3 37.5
06:15 1018 30.06 847 25.01 10.7 51.2 60 3.2 37.7
06:20 1018 30.06 847 25.01 10.8 51.4 60 3.3 37.9
06:25 1018 30.06 847 25.01 10.8 51.4 59 3.2 37.8
06:30 1018 30.06 847 25.01 10.9 51.5 59 3.2 37.8
06:35 1018 30.06 847 25.01 10.9 51.6 60 3.4 38.1
06:40 1018 30.06 847 25.01 10.9 51.6 59 3.2 37.8
06:45 1018 30.06 847 25.01 11 51.7 59 3.4 38.1
06:50 1018 30.06 847 25.01 11 51.8 59 3.3 37.9
06:55 1018 30.06 847 25.01 11 51.9 59 3.5 38.2
07:00 1018 30.06 847 25.01 11.1 51.9 59 3.5 38.2
07:05 1018 30.06 847 25.01 11.1 52 57 2.9 37.2
07:10 1018 30.06 847 25.01 11.3 52.4 56 2.8 37
07:15 1018 30.06 847 25.01 11.6 52.8 54 2.7 36.9
07:20 1018 30.06 847 25.01 11.6 52.9 55 3 37.4
07:25 1018 30.06 847 25.01 11.7 53.1 55 3.1 37.6
07:30 1018 30.06 847 25.01 11.8 53.2 55 3.1 37.6
07:35 1018 30.06 847 25.01 12.1 53.7 54 3 37.4
07:40 1018 30.06 847 25.01 12.2 54 54 3.4 38
07:45 1018 30.06 847 25.01 12.4 54.3 52 3 37.4
07:50 1018 30.06 847 25.01 12.7 54.8 51 2.8 37
07:55 1018 30.06 847 25.01 13.1 55.6 49 2.7 36.8
08:00 1018 30.06 847 25.01 13.1 55.6 50 3 37.3
08:05 1018 30.06 847 25.01 13.1 55.6 50 3 37.3
08:10 1018 30.06 847 25.01 13.3 55.9 50 3.1 37.7
08:15 1018 30.06 847 25.01 13.5 56.3 49 3.2 37.7
08:20 1018 30.06 847 25.01 13.5 56.3 49 3.1 37.5
08:25 1018 30.06 847 25.01 13.5 56.3 48 2.9 37.1
08:30 1018 30.06 847 25.01 13.6 56.5 49 3.1 37.6
08:35 1018 30.06 847 25.01 13.7 56.6 46 2.3 36.2
08:40 1018 30.06 847 25.01 14.2 57.6 45 2.5 36.5
08:45 1018 30.06 848 25.04 14.4 57.9 49 3.8 38.8
08:50 1018 30.06 848 25.04 14.8 58.7 47 3.8 38.9
08:55 1018 30.06 847 25.01 15.5 60 39 1.7 35
09:00 1018 30.06 847 25.01 15.9 60.6 39 2.2 35.9
09:05 1018 30.06 847 25.01 15.9 60.6 39 2 35.5
09:10 1018 30.06 847 25.01 16.5 61.8 38 2.3 36.2
09:15 1018 30.06 847 25.01 16.3 61.4 36 1.3 34.4
09:20 1018 30.06 847 25.01 16.1 61 34 0.3 32.5
09:25 1018 30.06 847 25.01 16.3 61.4 37 1.6 34.9
09:30 1018 30.06 847 25.01 17 62.6 34 1 33.8
09:35 1018 30.06 847 25.01 16.9 62.3 36 1.7 35.1
09:40 1018 30.06 847 25.01 16.8 62.3 33 0.7 33.2
09:45 1018 30.06 847 25.01 17 62.6 35 1.6 34.9
09:50 1018 30.06 847 25.01 16.4 61.4 37 1.6 34.9
09:55 1018 30.06 847 25.01 16.3 61.3 36 1.3 34.4
10:00 1018 30.06 847 25.01 16.8 62.2 34 1 33.7
10:05 1018 30.06 847 25.01 16.7 62.1 33 0.5 32.8
10:10 1018 30.06 847 25.01 16.5 61.7 34 0.8 33.5
10:15 1018 30.06 847 25.01 16.4 61.4 35 0.8 33.5
10:20 1018 30.06 847 25.01 16.5 61.7 36 1.5 34.8
10:25 1018 30.06 847 25.01 16.5 61.8 37 2.1 35.8
10:30 1018 30.06 847 25.01 16.5 61.6 35 1.2 34.1
10:35 1018 30.06 847 25.01 16.3 61.4 34 0.7 33.2
10:40 1018 30.06 847 25.01 16.4 61.5 34 0.5 32.9
10:45 1018 30.06 847 25.01 16.6 61.9 35 1.3 34.3
10:50 1018 30.06 847 25.01 16.9 62.3 36 1.7 35
10:55 1018 30.06 847 25.01 16.6 61.8 37 1.8 35.3
11:00 1018 30.06 847 25.01 16.4 61.5 35 0.9 33.5
11:05 1018 30.06 847 25.01 16.4 61.6 34 0.8 33.4
11:10 1018 30.06 847 25.01 16.8 62.2 33 0.6 33.1
11:15 1018 30.06 847 25.01 17.3 63.1 32 0.6 33.1
11:20 1018 30.06 847 25.01 17.4 63.4 31 0.4 32.8
11:25 1018 30.06 847 25.01 17 62.6 33 0.8 33.5
11:30 1018 30.06 847 25.01 17.2 63 33 1.1 34
11:35 1018 30.06 847 25.01 18 64.4 31 0.6 33
11:40 1018 30.06 847 25.01 18 64.3 31 0.6 33.2
11:45 1018 30.06 847 25.01 18.1 64.5 30 0.2 32.4
11:50 1018 30.06 847 25.01 18.4 65.1 30 0.6 33.1
11:55 1018 30.06 847 25.01 19 66.2 30 1 33.7
12:00 1018 30.06 847 25.01 18.8 65.8 29 0.6 33.2
12:05 1018 30.06 847 25.01 18.3 65 29 0 32
12:10 1018 30.06 847 25.01 18.3 65 29 0.1 32.2
12:15 1018 30.06 847 25.01 19 66.3 26 -0.7 30.7
12:20 1018 30.06 847 25.01 19 66.2 27 -0.1 31.8
12:25 1018 30.06 847 25.01 19.1 66.4 27 -0.1 31.8
12:30 1018 30.06 847 25.01 18.9 66 27 -0.6 30.9
12:35 1018 30.06 847 25.01 18.9 66 28 0.3 32.5
12:40 1018 30.06 847 25.01 18.9 66.1 29 0.5 32.8
12:45 1018 30.06 847 25.01 18.6 65.5 29 0.5 32.9
12:50 1018 30.06 847 25.01 18.3 64.9 27 -0.7 30.8
12:55 1018 30.06 847 25.01 18.4 65.2 28 -0.2 31.7
13:00 1018 30.06 847 25.01 18.6 65.4 27 -0.7 30.7
13:05 1018 30.06 847 25.01 18.6 65.5 26 -0.9 30.4
13:10 1018 30.06 847 25.01 18.7 65.6 28 -0.2 31.6
13:15 1018 30.06 847 25.01 18.9 66.1 28 0.1 32.2
13:20 1018 30.06 847 25.01 19 66.2 26 -0.8 30.5
13:25 1018 30.06 847 25.01 19.1 66.4 25 -1.1 30.1
13:30 1018 30.06 847 25.01 19.6 67.2 25 -0.8 30.6
13:35 1018 30.06 847 25.01 19.6 67.4 26 -0.5 31.1
13:40 1018 30.06 847 25.01 19.8 67.6 27 0.5 32.8
13:45 1018 30.06 847 25.01 19.5 67.1 27 0.3 32.6
13:50 1018 30.06 847 25.01 19.7 67.5 26 -0.1 31.8
13:55 1018 30.06 847 25.01 19.8 67.6 27 0.2 32.3
14:00 1018 30.06 847 25.01 20.2 68.4 28 1.2 34.2
14:05 1018 30.06 847 25.01 20.5 68.9 28 1.4 34.5
14:10 1018 30.06 847 25.01 20.1 68.2 29 1.7 35
14:15 1018 30.06 847 25.01 19.9 67.7 29 1.3 34.3
14:20 1018 30.06 847 25.01 19.8 67.6 28 0.9 33.6
14:25 1018 30.06 847 25.01 19.5 67 29 1.3 34.3
14:30 1018 30.06 847 25.01 19.3 66.7 27 -0.2 31.7
14:35 1018 30.06 847 25.01 18.9 66 27 -0.2 31.7
14:40 1018 30.06 847 25.01 18.7 65.6 28 -0.2 31.6
14:45 1018 30.06 847 25.01 18.7 65.6 28 -0.1 31.8
14:50 1018 30.06 847 25.01 18.7 65.6 30 0.8 33.4
14:55 1018 30.06 847 25.01 18.7 65.6 30 1 33.8
15:00 1018 30.06 847 25.01 18.8 65.9 29 0.5 32.9
15:05 1018 30.06 847 25.01 18.9 66 30 0.9 33.6
15:10 1018 30.06 847 25.01 18.9 66 29 0.6 33.2
15:15 1018 30.06 847 25.01 18.7 65.6 32 1.6 34.8
15:20 1018 30.06 847 25.01 18.9 65.9 31 1.5 34.7
15:25 1018 30.06 847 25.01 19.2 66.6 31 1.7 35.1
15:30 1018 30.06 847 25.01 19.9 67.7 29 1.4 34.5
15:35 1018 30.06 847 25.01 20.2 68.3 29 2 35.5
15:40 1018 30.06 847 25.01 19.7 67.4 30 1.6 34.8
15:45 1018 30.06 847 25.01 19.7 67.4 30 1.8 35.2
15:50 1018 30.06 847 25.01 19.9 67.7 30 2.1 35.8
15:55 1017 30.03 847 25.01 19.8 67.6 29 1.5 34.7
16:00 1017 30.03 847 25.01 19.6 67.3 30 1.9 35.5
16:05 1017 30.03 847 25.01 19.4 67 32 2.5 36.5
16:10 1018 30.06 847 25.01 19.4 66.8 31 2 35.6
16:15 1018 30.06 847 25.01 19.5 67.1 32 2.3 36.2
16:20 1018 30.06 847 25.01 19.6 67.2 31 2.3 36.1
16:25 1018 30.06 847 25.01 19.5 67 32 2.4 36.3
16:30 1018 30.06 847 25.01 19.4 66.8 32 2.4 36.3
16:35 1018 30.06 847 25.01 19.3 66.8 32 2.5 36.6
16:40 1018 30.06 847 25.01 19.2 66.5 33 2.8 37.1
16:45 1018 30.06 847 25.01 19.1 66.3 34 3 37.5
16:50 1018 30.06 847 25.01 19.2 66.5 34 3.1 37.5
16:55 1018 30.06 847 25.01 19.2 66.5 34 2.9 37.2
17:00 1018 30.06 847 25.01 19.1 66.3 34 3 37.4
17:05 1018 30.06 847 25.01 19.1 66.4 33 2.6 36.8
17:10 1018 30.06 847 25.01 19 66.3 34 2.8 37.1
17:15 1018 30.06 847 25.01 18.8 65.9 32 2.1 35.8
17:20 1017 30.03 847 25.01 18.8 65.8 33 2.3 36.1
17:25 1017 30.03 847 25.01 18.8 65.9 33 2.4 36.3
17:30 1017 30.03 847 25.01 18.8 65.8 32 2 35.6
17:35 1017 30.03 847 25.01 19 66.2 33 2.5 36.5
17:40 1017 30.03 847 25.01 19 66.2 33 2.5 36.5
17:45 1017 30.03 846 24.98 19 66.2 32 2.3 36.1
17:50 1017 30.03 846 24.98 19 66.2 33 2.4 36.3
17:55 1017 30.03 846 24.98 19.1 66.4 32 2.1 35.8
18:00 1017 30.03 847 25.01 19.3 66.7 29 0.9 33.6
18:05 1017 30.03 846 24.98 19.5 67 30 1.6 34.9
18:10 1017 30.03 846 24.98 19.4 67 29 1.1 34
18:15 1017 30.03 846 24.98 19.6 67.2 31 2.1 35.8
18:20 1017 30.03 846 24.98 19.4 67 32 2.3 36.1
18:25 1017 30.03 846 24.98 19.5 67.1 31 1.9 35.5
18:30 1017 30.03 846 24.98 19.6 67.3 32 2.6 36.6
18:35 1017 30.03 846 24.98 19.3 66.8 32 2.4 36.3
18:40 1017 30.03 846 24.98 19.1 66.3 33 2.6 36.6
18:45 1017 30.03 847 25.01 18.8 65.9 35 3.1 37.7
18:50 1017 30.03 847 25.01 18.6 65.5 35 3.2 37.7
18:55 1017 30.03 847 25.01 18.4 65 37 3.7 38.6
19:00 1017 30.03 847 25.01 18.2 64.8 37 3.6 38.4
19:05 1017 30.03 847 25.01 18.1 64.5 39 3.9 39
19:10 1017 30.03 847 25.01 17.9 64.2 36 2.9 37.3
19:15 1017 30.03 847 25.01 18 64.3 38 3.5 38.3
19:20 1017 30.03 847 25.01 17.9 64.1 39 3.8 38.8
19:25 1017 30.03 847 25.01 17.8 64 40 4.1 39.3
19:30 1017 30.03 847 25.01 17.7 63.9 41 4.6 40.2
19:35 1017 30.03 847 25.01 17.5 63.4 44 5.2 41.4
19:40 1017 30.03 847 25.01 17.4 63.3 39 3.3 38
19:45 1017 30.03 847 25.01 17.8 64 39 3.6 38.6
19:50 1017 30.03 847 25.01 17.7 63.9 39 3.6 38.5
19:55 1017 30.03 846 24.98 17.7 63.8 40 4.2 39.5
20:00 1017 30.03 846 24.98 17.7 63.8 38 3.5 38.2
20:05 1017 30.03 846 24.98 17.6 63.7 41 4.2 39.6
20:10 1017 30.03 846 24.98 17.4 63.3 41 4.1 39.3
20:15 1017 30.03 846 24.98 17.1 62.8 41 3.8 38.8
20:20 1017 30.03 846 24.98 17 62.6 39 3.1 37.6
20:25 1017 30.03 846 24.98 17.2 62.9 37 2.6 36.6
20:30 1017 30.03 846 24.98 17.3 63.2 38 3 37.4
20:35 1017 30.03 846 24.98 17 62.7 39 3.2 37.7
20:40 1017 30.03 846 24.98 16.8 62.2 39 2.8 37.1
20:45 1017 30.03 846 24.98 16.9 62.4 39 2.9 37.1
20:50 1017 30.03 847 25.01 16.7 62.1 40 3.3 38
20:55 1017 30.03 847 25.01 16.3 61.3 42 3.4 38.2
21:00 1018 30.06 847 25.01 16.2 61.1 45 4.4 39.8
21:05 1018 30.06 847 25.01 15.6 60.2 45 4 39.1
21:10 1018 30.06 847 25.01 15.7 60.2 44 3.7 38.6
21:15 1018 30.06 847 25.01 16.1 61 41 3.1 37.6
21:20 1018 30.06 847 25.01 16.3 61.3 41 3.3 37.9
21:25 1018 30.06 847 25.01 16.2 61.2 42 3.5 38.3
21:30 1018 30.06 847 25.01 16 60.7 43 3.6 38.5
21:35 1018 30.06 847 25.01 15.8 60.4 44 3.5 38.4
21:40 1018 30.06 847 25.01 15.7 60.2 44 3.5 38.3
21:45 1018 30.06 847 25.01 15.9 60.6 43 3.5 38.3
21:50 1018 30.06 847 25.01 16 60.8 43 3.5 38.3
21:55 1018 30.06 847 25.01 16 60.9 43 3.5 38.3
22:00 1018 30.06 847 25.01 16.1 61 42 3.3 38
22:05 1018 30.06 847 25.01 16.2 61.1 42 3.3 37.9
22:10 1018 30.06 847 25.01 16.2 61.1 41 3.1 37.5
22:15 1018 30.06 847 25.01 16.2 61.2 41 3 37.4
22:20 1018 30.06 847 25.01 16.1 61 41 3.1 37.6
22:25 1018 30.06 847 25.01 15.9 60.5 42 3.2 37.7
22:30 1018 30.06 847 25.01 15.6 60 43 3.3 37.9
22:35 1018 30.06 847 25.01 15.4 59.7 45 3.4 38.2
22:40 1018 30.06 847 25.01 15.1 59.2 45 3.4 38.1
22:45 1018 30.06 847 25.01 14.7 58.5 49 4.1 39.5
22:50 1018 30.06 847 25.01 13.7 56.7 54 4.6 40.2
22:55 1018 30.06 848 25.04 13.3 56 53 4.1 39.4
23:00 1018 30.06 848 25.04 13 55.5 53 3.8 38.9
23:05 1018 30.06 848 25.04 13.1 55.5 53 3.8 38.9
23:10 1018 30.06 847 25.01 13.1 55.6 53 3.9 39
23:15 1018 30.06 847 25.01 13 55.4 55 4.1 39.5
23:20 1018 30.06 847 25.01 12.7 54.9 55 4 39.2
23:25 1018 30.06 848 25.04 12.6 54.7 55 3.8 38.8
23:30 1018 30.06 848 25.04 12.9 55.1 53 3.7 38.6
23:35 1018 30.06 848 25.04 12.7 54.8 56 4.3 39.7
23:40 1018 30.06 848 25.04 12.4 54.3 57 4.1 39.4
23:45 1019 30.09 848 25.04 12.3 54.1 56 3.7 38.7
23:50 1019 30.09 848 25.04 12.6 54.8 53 3.2 37.8
23:55 1019 30.09 848 25.04 13.1 55.6 52 3.5 38.3
24:00 1019 30.09 848 25.04 13.2 55.8 51 3.2 37.8